createdAt,value
2018-12-15T00:00:08.480Z,11.63
2018-12-15T00:02:36.764Z,11.50
2018-12-15T00:05:05.518Z,10.18
2018-12-15T00:07:33.804Z,12.43
2018-12-15T00:10:02.279Z,10.40
2018-12-15T00:12:30.591Z,10.28
2018-12-15T00:14:58.857Z,10.20
2018-12-15T00:17:27.164Z,11.63
2018-12-15T00:19:55.444Z,11.38
2018-12-15T00:22:23.765Z,11.53
2018-12-15T00:24:52.064Z,11.45
2018-12-15T00:27:20.373Z,12.73
2018-12-15T00:29:48.652Z,12.03
2018-12-15T00:32:16.960Z,12.35
2018-12-15T00:34:45.248Z,10.30
2018-12-15T00:37:13.544Z,11.22
2018-12-15T00:39:42.055Z,11.78
2018-12-15T00:42:10.321Z,11.45
2018-12-15T00:44:38.572Z,12.53
2018-12-15T00:47:13.546Z,11.08
2018-12-15T00:49:37.134Z,12.85
2018-12-15T00:52:05.429Z,11.75
2018-12-15T00:54:33.698Z,12.65
2018-12-15T00:57:02.012Z,11.18
2018-12-15T00:59:30.365Z,12.10
2018-12-15T01:01:58.652Z,10.95
2018-12-15T01:04:27.234Z,11.85
2018-12-15T01:06:55.529Z,12.50
2018-12-15T01:09:23.818Z,11.73
2018-12-15T01:11:52.100Z,11.85
2018-12-15T01:14:20.381Z,11.03
2018-12-15T01:16:48.653Z,12.53
2018-12-15T01:19:16.955Z,12.20
2018-12-15T01:21:45.230Z,13.40
2018-12-15T01:24:13.550Z,13.40
2018-12-15T01:26:42.078Z,11.35
2018-12-15T01:29:10.369Z,11.15
2018-12-15T01:31:38.770Z,12.13
2018-12-15T01:34:07.048Z,11.93
2018-12-15T01:36:35.344Z,15.40
2018-12-15T01:39:05.513Z,12.05
2018-12-15T01:41:33.778Z,11.75
2018-12-15T01:44:02.076Z,10.80
2018-12-15T01:46:30.348Z,12.82
2018-12-15T01:48:58.621Z,11.73
2018-12-15T01:51:26.917Z,11.83
2018-12-15T01:53:55.180Z,12.28
2018-12-15T01:56:23.908Z,12.88
2018-12-15T01:58:52.180Z,12.82
2018-12-15T02:01:20.476Z,13.08
2018-12-15T02:03:48.753Z,12.20
2018-12-15T02:06:17.189Z,11.78
2018-12-15T02:08:45.465Z,11.00
2018-12-15T02:11:13.741Z,11.73
2018-12-15T02:13:42.021Z,12.23
2018-12-15T02:16:10.327Z,11.30
2018-12-15T02:18:38.623Z,11.25
2018-12-15T02:21:06.920Z,10.75
2018-12-15T02:23:35.206Z,11.50
2018-12-15T02:26:03.564Z,10.63
2018-12-15T02:28:31.841Z,12.28
2018-12-15T02:31:00.351Z,12.70
2018-12-15T02:33:28.629Z,11.57
2018-12-15T02:35:56.936Z,11.80
2018-12-15T02:38:25.234Z,12.35
2018-12-15T02:40:53.537Z,10.95
2018-12-15T02:43:21.835Z,11.22
2018-12-15T02:45:50.209Z,11.25
2018-12-15T02:48:18.513Z,11.53
2018-12-15T02:50:46.820Z,12.30
2018-12-15T02:53:15.125Z,13.43
2018-12-15T02:55:43.400Z,12.65
2018-12-15T02:58:11.684Z,14.10
2018-12-15T03:00:39.956Z,12.53
2018-12-15T03:03:08.258Z,11.40
2018-12-15T03:05:36.534Z,13.22
2018-12-15T03:08:04.823Z,12.68
2018-12-15T03:10:33.093Z,11.80
2018-12-15T03:13:01.395Z,10.72
2018-12-15T03:15:29.671Z,13.45
2018-12-15T03:17:57.968Z,11.80
2018-12-15T03:20:26.250Z,12.82
2018-12-15T03:22:54.567Z,12.58
2018-12-15T03:25:23.029Z,12.30
2018-12-15T03:27:51.343Z,13.75
2018-12-15T03:30:19.785Z,12.88
2018-12-15T03:32:48.294Z,11.50
2018-12-15T03:35:16.615Z,12.65
2018-12-15T03:37:44.888Z,11.05
2018-12-15T03:40:13.189Z,12.60
2018-12-15T03:42:41.537Z,12.50
2018-12-15T03:45:09.864Z,12.65
2018-12-15T03:47:38.312Z,13.62
2018-12-15T03:50:07.414Z,12.63
2018-12-15T03:52:35.928Z,11.90
2018-12-15T03:55:04.350Z,11.63
2018-12-15T03:57:32.825Z,11.97
2018-12-15T04:00:01.123Z,13.58
2018-12-15T04:02:29.384Z,11.73
2018-12-15T04:04:58.150Z,11.22
2018-12-15T04:07:26.553Z,14.13
2018-12-15T04:09:54.830Z,12.93
2018-12-15T04:12:23.118Z,13.55
2018-12-15T04:14:51.380Z,12.33
2018-12-15T04:17:19.678Z,13.20
2018-12-15T04:19:48.025Z,11.08
2018-12-15T04:22:19.141Z,14.45
2018-12-15T04:24:47.572Z,13.35
2018-12-15T04:27:16.088Z,12.40
2018-12-15T04:29:44.424Z,12.13
2018-12-15T04:32:12.715Z,12.45
2018-12-15T04:34:40.989Z,12.40
2018-12-15T04:37:09.574Z,11.40
2018-12-15T04:39:37.874Z,12.30
2018-12-15T04:42:06.195Z,11.05
2018-12-15T04:44:34.792Z,11.63
2018-12-15T04:47:03.580Z,11.65
2018-12-15T04:49:32.541Z,11.38
2018-12-15T04:52:00.820Z,12.73
2018-12-15T04:54:29.124Z,12.30
2018-12-15T04:56:57.405Z,12.85
2018-12-15T04:59:25.700Z,13.68
2018-12-15T05:01:53.980Z,12.18
2018-12-15T05:04:22.273Z,12.03
2018-12-15T05:06:50.757Z,12.63
2018-12-15T05:09:19.069Z,13.00
2018-12-15T05:11:47.358Z,11.18
2018-12-15T05:14:15.668Z,12.78
2018-12-15T05:16:43.972Z,11.78
2018-12-15T05:19:12.254Z,12.55
2018-12-15T05:21:40.810Z,12.35
2018-12-15T05:24:09.347Z,12.70
2018-12-15T05:26:37.682Z,12.23
2018-12-15T05:29:05.973Z,15.00
2018-12-15T05:31:34.254Z,12.33
2018-12-15T05:34:02.645Z,12.90
2018-12-15T05:36:31.113Z,12.68
2018-12-15T05:38:59.424Z,12.95
2018-12-15T05:41:27.697Z,15.90
2018-12-15T05:43:56.014Z,15.70
2018-12-15T05:46:24.318Z,15.20
2018-12-15T05:48:52.633Z,16.15
2018-12-15T05:51:20.951Z,13.85
2018-12-15T05:53:49.293Z,12.93
2018-12-15T05:56:17.574Z,14.73
2018-12-15T05:58:45.875Z,14.45
2018-12-15T06:01:14.140Z,13.32
2018-12-15T06:03:42.438Z,13.35
2018-12-15T06:06:10.737Z,14.33
2018-12-15T06:08:39.040Z,15.43
2018-12-15T06:11:07.321Z,13.60
2018-12-15T06:13:35.616Z,13.98
2018-12-15T06:16:03.972Z,14.18
2018-12-15T06:18:32.292Z,15.08
2018-12-15T06:21:00.578Z,15.03
2018-12-15T06:23:28.868Z,15.63
2018-12-15T06:25:57.162Z,14.15
2018-12-15T06:28:25.516Z,14.13
2018-12-15T06:30:53.896Z,14.80
2018-12-15T06:33:22.284Z,13.90
2018-12-15T06:35:50.580Z,14.83
2018-12-15T06:38:18.857Z,14.70
2018-12-15T06:40:47.152Z,14.78
2018-12-15T06:43:15.526Z,15.93
2018-12-15T06:45:44.386Z,14.33
2018-12-15T06:48:12.669Z,17.42
2018-12-15T06:50:40.940Z,15.45
2018-12-15T06:53:09.856Z,33.65
2018-12-15T06:55:38.134Z,18.00
2018-12-15T06:58:06.460Z,15.93
2018-12-15T07:00:34.737Z,14.47
2018-12-15T07:03:03.116Z,15.95
2018-12-15T07:05:31.428Z,15.90
2018-12-15T07:07:59.749Z,16.82
2018-12-15T07:10:28.039Z,15.95
2018-12-15T07:12:56.352Z,15.53
2018-12-15T07:15:24.717Z,16.65
2018-12-15T07:17:53.006Z,14.85
2018-12-15T07:20:21.275Z,15.28
2018-12-15T07:22:49.576Z,14.43
2018-12-15T07:25:18.094Z,17.98
2018-12-15T07:27:46.470Z,14.83
2018-12-15T07:30:14.748Z,16.32
2018-12-15T07:32:43.088Z,17.32
2018-12-15T07:35:11.372Z,13.08
2018-12-15T07:37:39.666Z,15.45
2018-12-15T07:40:08.568Z,15.72
2018-12-15T07:42:36.922Z,16.23
2018-12-15T07:45:05.961Z,15.68
2018-12-15T07:47:34.233Z,17.90
2018-12-15T07:50:02.614Z,15.18
2018-12-15T07:52:30.897Z,15.78
2018-12-15T07:54:59.180Z,16.48
2018-12-15T07:57:27.456Z,15.95
2018-12-15T07:59:55.756Z,14.13
2018-12-15T08:02:24.131Z,16.42
2018-12-15T08:04:52.438Z,14.83
2018-12-15T08:07:20.726Z,13.80
2018-12-15T08:09:50.086Z,15.98
2018-12-15T08:12:23.905Z,18.00
2018-12-15T08:14:52.214Z,14.40
2018-12-15T08:17:20.748Z,15.60
2018-12-15T08:19:48.975Z,15.40
2018-12-15T08:22:17.274Z,16.62
2018-12-15T08:24:47.280Z,16.35
2018-12-15T08:27:16.071Z,14.63
2018-12-15T08:29:44.303Z,16.15
2018-12-15T08:32:12.639Z,14.50
2018-12-15T08:34:40.918Z,14.53
2018-12-15T08:37:09.218Z,16.52
2018-12-15T08:39:37.495Z,15.58
2018-12-15T08:42:05.801Z,29.75
2018-12-15T08:44:34.145Z,17.40
2018-12-15T08:47:02.505Z,15.13
2018-12-15T08:49:30.788Z,14.33
2018-12-15T08:51:59.073Z,16.23
2018-12-15T08:54:27.350Z,16.48
2018-12-15T08:56:55.648Z,15.45
2018-12-15T08:59:23.914Z,16.17
2018-12-15T09:01:52.234Z,15.28
2018-12-15T09:04:20.801Z,13.93
2018-12-15T09:06:49.083Z,16.05
2018-12-15T09:09:17.412Z,16.55
2018-12-15T09:11:45.749Z,17.32
2018-12-15T09:14:14.031Z,18.85
2018-12-15T09:16:42.306Z,17.90
2018-12-15T09:19:11.454Z,15.38
2018-12-15T09:21:39.962Z,19.57
2018-12-15T09:24:08.264Z,17.48
2018-12-15T09:26:36.592Z,16.48
2018-12-15T09:29:05.489Z,14.65
2018-12-15T09:31:33.776Z,14.20
2018-12-15T09:34:02.144Z,14.50
2018-12-15T09:36:30.422Z,16.67
2018-12-15T09:38:58.716Z,14.70
2018-12-15T09:41:26.988Z,16.40
2018-12-15T09:43:55.303Z,16.45
2018-12-15T09:46:23.781Z,16.52
2018-12-15T09:48:52.222Z,15.93
2018-12-15T09:51:20.554Z,17.27
2018-12-15T09:53:48.866Z,16.62
2018-12-15T09:56:17.130Z,17.70
2018-12-15T09:58:45.488Z,16.48
2018-12-15T10:01:13.776Z,15.50
2018-12-15T10:03:42.080Z,16.67
2018-12-15T10:06:10.487Z,16.75
2018-12-15T10:08:38.837Z,19.10
2018-12-15T10:11:07.254Z,24.05
2018-12-15T10:13:35.574Z,18.23
2018-12-15T10:16:03.937Z,15.45
2018-12-15T10:18:32.238Z,16.65
2018-12-15T10:21:00.533Z,15.95
2018-12-15T10:23:28.825Z,16.20
2018-12-15T10:25:57.115Z,15.35
2018-12-15T10:28:25.428Z,16.40
2018-12-15T10:30:59.419Z,16.67
2018-12-15T10:33:27.716Z,13.35
2018-12-15T10:35:55.992Z,16.57
2018-12-15T10:38:24.296Z,15.93
2018-12-15T10:40:52.574Z,13.03
2018-12-15T10:43:21.283Z,15.72
2018-12-15T10:45:49.585Z,14.28
2018-12-15T10:48:17.864Z,15.60
2018-12-15T10:50:46.157Z,14.50
2018-12-15T10:53:14.506Z,22.67
2018-12-15T10:55:42.741Z,14.60
2018-12-15T10:58:11.052Z,11.85
2018-12-15T11:00:45.064Z,13.58
2018-12-15T11:03:13.376Z,12.43
2018-12-15T11:05:41.681Z,13.10
2018-12-15T11:08:10.596Z,15.65
2018-12-15T11:10:38.870Z,14.15
2018-12-15T11:13:07.266Z,13.55
2018-12-15T11:15:35.509Z,15.53
2018-12-15T11:18:03.885Z,14.35
2018-12-15T11:20:32.175Z,16.45
2018-12-15T11:23:00.465Z,13.20
2018-12-15T11:25:28.749Z,12.33
2018-12-15T11:27:57.065Z,13.98
2018-12-15T11:30:25.339Z,14.25
2018-12-15T11:32:53.644Z,13.83
2018-12-15T11:35:23.011Z,13.78
2018-12-15T11:37:51.327Z,14.45
2018-12-15T11:40:19.603Z,14.87
2018-12-15T11:42:47.914Z,14.10
2018-12-15T11:45:16.179Z,13.28
2018-12-15T11:47:45.311Z,13.83
2018-12-15T11:50:13.584Z,16.00
2018-12-15T11:52:41.892Z,14.87
2018-12-15T11:55:10.205Z,17.77
2018-12-15T11:57:38.486Z,16.25
2018-12-15T12:00:07.450Z,12.43
2018-12-15T12:02:35.752Z,15.75
2018-12-15T12:05:05.801Z,13.72
2018-12-15T12:07:34.116Z,13.83
2018-12-15T12:10:02.440Z,15.13
2018-12-15T12:12:31.885Z,15.03
2018-12-15T12:15:00.485Z,13.60
2018-12-15T12:17:28.757Z,12.53
2018-12-15T12:19:57.630Z,13.13
2018-12-15T12:22:25.911Z,14.73
2018-12-15T12:24:54.213Z,12.90
2018-12-15T12:27:22.508Z,13.35
2018-12-15T12:29:50.813Z,15.85
2018-12-15T12:32:19.188Z,17.10
2018-12-15T12:34:47.474Z,16.73
2018-12-15T12:37:15.804Z,15.43
2018-12-15T12:39:44.092Z,16.07
2018-12-15T12:42:13.005Z,13.45
2018-12-15T12:44:41.659Z,19.40
2018-12-15T12:47:10.669Z,13.98
2018-12-15T12:49:38.894Z,13.85
2018-12-15T12:52:07.202Z,13.95
2018-12-15T12:54:36.118Z,13.62
2018-12-15T12:57:04.446Z,13.55
2018-12-15T12:59:32.732Z,14.40
2018-12-15T13:02:01.036Z,12.43
2018-12-15T13:04:29.597Z,14.65
2018-12-15T13:06:57.893Z,11.75
2018-12-15T13:09:26.205Z,12.45
2018-12-15T13:11:54.515Z,11.75
2018-12-15T13:14:22.810Z,11.97
2018-12-15T13:16:51.077Z,11.75
2018-12-15T13:19:19.411Z,11.95
2018-12-15T13:21:47.673Z,12.80
2018-12-15T13:24:16.188Z,10.95
2018-12-15T13:26:44.540Z,13.40
2018-12-15T13:29:13.169Z,10.93
2018-12-15T13:31:41.423Z,9.73
2018-12-15T13:34:09.709Z,11.10
2018-12-15T13:36:37.981Z,8.70
2018-12-15T13:39:06.405Z,8.85
2018-12-15T13:41:34.677Z,9.75
2018-12-15T13:44:02.983Z,10.23
2018-12-15T13:46:31.260Z,8.20
2018-12-15T13:48:59.597Z,11.05
2018-12-15T13:51:27.873Z,10.32
2018-12-15T13:53:56.215Z,11.28
2018-12-15T13:56:24.500Z,10.05
2018-12-15T13:58:52.790Z,11.43
2018-12-15T14:01:21.069Z,11.70
2018-12-15T14:03:49.381Z,9.20
2018-12-15T14:06:17.662Z,10.95
2018-12-15T14:08:45.944Z,12.43
2018-12-15T14:11:14.236Z,10.50
2018-12-15T14:13:42.507Z,9.58
2018-12-15T14:16:10.837Z,11.70
2018-12-15T14:18:39.120Z,12.03
2018-12-15T14:21:07.426Z,10.60
2018-12-15T14:23:35.769Z,10.20
2018-12-15T14:26:04.708Z,11.53
2018-12-15T14:28:32.987Z,10.50
2018-12-15T14:31:01.291Z,9.33
2018-12-15T14:33:29.563Z,11.40
2018-12-15T14:35:57.913Z,11.08
2018-12-15T14:38:26.195Z,10.85
2018-12-15T14:40:54.994Z,10.75
2018-12-15T14:43:23.492Z,11.53
2018-12-15T14:45:51.825Z,11.57
2018-12-15T14:48:20.144Z,11.22
2018-12-15T14:50:48.465Z,11.80
2018-12-15T14:53:16.734Z,12.68
2018-12-15T14:55:45.007Z,10.43
2018-12-15T14:58:13.574Z,11.57
2018-12-15T15:00:41.845Z,14.63
2018-12-15T15:03:10.144Z,10.45
2018-12-15T15:05:38.417Z,10.93
2018-12-15T15:08:07.204Z,11.70
2018-12-15T15:10:35.479Z,12.78
2018-12-15T15:13:03.783Z,15.40
2018-12-15T15:15:32.088Z,14.07
2018-12-15T15:18:00.385Z,11.48
2018-12-15T15:20:29.852Z,13.78
2018-12-15T15:22:58.587Z,13.32
2018-12-15T15:25:26.894Z,12.78
2018-12-15T15:27:55.203Z,14.50
2018-12-15T15:30:23.469Z,12.58
2018-12-15T15:32:51.831Z,12.63
2018-12-15T15:35:20.083Z,13.13
2018-12-15T15:37:48.561Z,14.98
2018-12-15T15:40:16.879Z,13.22
2018-12-15T15:42:45.166Z,15.63
2018-12-15T15:45:13.452Z,12.30
2018-12-15T15:47:41.758Z,13.55
2018-12-15T15:50:10.130Z,14.10
2018-12-15T15:52:38.618Z,12.40
2018-12-15T15:55:07.076Z,13.20
2018-12-15T15:57:35.399Z,14.30
2018-12-15T16:00:05.766Z,13.20
2018-12-15T16:02:34.027Z,14.47
2018-12-15T16:05:02.439Z,14.93
2018-12-15T16:07:31.067Z,15.30
2018-12-15T16:09:59.373Z,13.38
2018-12-15T16:12:27.709Z,13.32
2018-12-15T16:14:56.002Z,15.05
2018-12-15T16:17:24.277Z,13.65
2018-12-15T16:19:52.576Z,14.03
2018-12-15T16:22:20.925Z,13.62
2018-12-15T16:24:49.256Z,13.25
2018-12-15T16:27:18.012Z,13.58
2018-12-15T16:29:46.686Z,14.60
2018-12-15T16:32:15.075Z,14.53
2018-12-15T16:34:44.337Z,14.50
2018-12-15T16:37:12.624Z,14.18
2018-12-15T16:39:40.918Z,15.13
2018-12-15T16:42:09.196Z,16.95
2018-12-15T16:44:37.501Z,13.53
2018-12-15T16:47:05.800Z,14.83
2018-12-15T16:49:34.102Z,14.30
2018-12-15T16:52:02.404Z,11.35
2018-12-15T16:54:30.695Z,14.18
2018-12-15T16:56:59.384Z,12.30
2018-12-15T16:59:27.660Z,15.15
2018-12-15T17:01:56.135Z,14.15
2018-12-15T17:04:24.472Z,13.32
2018-12-15T17:06:52.745Z,13.45
2018-12-15T17:09:21.038Z,14.90
2018-12-15T17:11:49.415Z,13.30
2018-12-15T17:14:17.792Z,12.70
2018-12-15T17:16:46.072Z,12.07
2018-12-15T17:19:14.378Z,14.25
2018-12-15T17:21:42.670Z,14.53
2018-12-15T17:24:10.956Z,13.32
2018-12-15T17:26:39.258Z,13.93
2018-12-15T17:29:07.529Z,14.98
2018-12-15T17:31:35.817Z,13.98
2018-12-15T17:34:04.168Z,13.18
2018-12-15T17:36:32.462Z,16.02
2018-12-15T17:39:00.758Z,15.70
2018-12-15T17:41:29.041Z,13.95
2018-12-15T17:43:57.325Z,13.78
2018-12-15T17:46:25.625Z,16.40
2018-12-15T17:48:53.930Z,13.62
2018-12-15T17:51:22.433Z,14.55
2018-12-15T17:53:50.918Z,12.82
2018-12-15T17:56:19.213Z,15.40
2018-12-15T17:58:47.525Z,15.13
2018-12-15T18:01:15.804Z,15.13
2018-12-15T18:03:44.102Z,13.25
2018-12-15T18:06:12.392Z,16.12
2018-12-15T18:08:40.701Z,16.37
2018-12-15T18:11:08.974Z,13.60
2018-12-15T18:13:37.260Z,17.45
2018-12-15T18:16:05.559Z,16.55
2018-12-15T18:18:33.844Z,17.05
2018-12-15T18:21:02.126Z,18.12
2018-12-15T18:23:30.451Z,12.23
2018-12-15T18:25:58.730Z,16.75
2018-12-15T18:28:27.031Z,15.28
2018-12-15T18:30:55.302Z,14.87
2018-12-15T18:33:23.598Z,17.00
2018-12-15T18:35:51.877Z,18.20
2018-12-15T18:38:20.190Z,16.37
2018-12-15T18:40:48.472Z,18.32
2018-12-15T18:43:16.749Z,17.90
2018-12-15T18:45:45.065Z,14.30
2018-12-15T18:48:13.345Z,17.85
2018-12-15T18:50:41.657Z,17.32
2018-12-15T18:53:09.958Z,14.95
2018-12-15T18:55:38.257Z,16.65
2018-12-15T18:58:08.541Z,18.65
2018-12-15T19:00:36.830Z,16.02
2018-12-15T19:03:05.176Z,14.55
2018-12-15T19:05:33.456Z,15.95
2018-12-15T19:08:01.764Z,16.42
2018-12-15T19:10:30.050Z,18.32
2018-12-15T19:12:58.334Z,17.32
2018-12-15T19:15:26.625Z,17.42
2018-12-15T19:17:54.936Z,17.92
2018-12-15T19:20:23.214Z,17.25
2018-12-15T19:22:51.521Z,17.02
2018-12-15T19:25:19.864Z,16.70
2018-12-15T19:27:48.152Z,18.02
2018-12-15T19:30:16.437Z,17.37
2018-12-15T19:32:44.735Z,15.98
2018-12-15T19:35:13.031Z,20.80
2018-12-15T19:37:41.320Z,16.00
2018-12-15T19:40:09.694Z,17.17
2018-12-15T19:42:37.976Z,16.50
2018-12-15T19:45:07.909Z,15.03
2018-12-15T19:47:36.233Z,16.82
2018-12-15T19:50:05.853Z,14.78
2018-12-15T19:52:34.126Z,18.62
2018-12-15T19:55:02.506Z,17.87
2018-12-15T19:57:30.799Z,17.25
2018-12-15T19:59:59.099Z,16.37
2018-12-15T20:02:27.370Z,17.75
2018-12-15T20:04:55.657Z,16.77
2018-12-15T20:07:23.980Z,18.57
2018-12-15T20:09:52.279Z,18.00
2018-12-15T20:12:20.553Z,19.25
2018-12-15T20:14:48.863Z,17.87
2018-12-15T20:17:17.134Z,19.15
2018-12-15T20:19:45.438Z,18.07
2018-12-15T20:22:13.752Z,18.30
2018-12-15T20:24:42.032Z,17.65
2018-12-15T20:27:10.314Z,18.00
2018-12-15T20:29:38.674Z,17.95
2018-12-15T20:32:06.943Z,20.80
2018-12-15T20:34:35.257Z,16.30
2018-12-15T20:37:03.559Z,18.20
2018-12-15T20:39:31.854Z,18.98
2018-12-15T20:42:00.124Z,17.30
2018-12-15T20:44:28.540Z,16.70
2018-12-15T20:46:56.887Z,18.60
2018-12-15T20:49:25.522Z,18.00
2018-12-15T20:51:55.561Z,17.23
2018-12-15T20:54:24.176Z,19.70
2018-12-15T20:56:52.476Z,20.00
2018-12-15T20:59:20.789Z,18.42
2018-12-15T21:01:49.100Z,19.30
2018-12-15T21:04:17.393Z,17.37
2018-12-15T21:06:45.686Z,18.55
2018-12-15T21:09:13.973Z,18.12
2018-12-15T21:11:42.348Z,17.57
2018-12-15T21:14:10.629Z,17.27
2018-12-15T21:16:38.940Z,20.60
2018-12-15T21:19:07.288Z,19.15
2018-12-15T21:21:35.670Z,18.80
2018-12-15T21:24:04.047Z,17.07
2018-12-15T21:26:32.353Z,18.48
2018-12-15T21:29:00.670Z,18.17
2018-12-15T21:31:28.947Z,17.85
2018-12-15T21:33:57.267Z,17.50
2018-12-15T21:36:25.557Z,18.27
2018-12-15T21:38:53.847Z,18.40
2018-12-15T21:41:22.158Z,16.97
2018-12-15T21:43:50.474Z,19.62
2018-12-15T21:46:18.780Z,20.05
2018-12-15T21:48:47.091Z,19.20
2018-12-15T21:51:16.297Z,17.80
2018-12-15T21:53:44.609Z,17.73
2018-12-15T21:56:12.904Z,14.98
2018-12-15T21:58:41.190Z,18.52
2018-12-15T22:01:09.488Z,18.92
2018-12-15T22:03:37.791Z,20.62
2018-12-15T22:06:06.073Z,18.50
2018-12-15T22:08:34.386Z,19.77
2018-12-15T22:11:03.157Z,18.98
2018-12-15T22:13:31.454Z,17.15
2018-12-15T22:15:59.747Z,18.55
2018-12-15T22:18:28.041Z,18.73
2018-12-15T22:20:56.822Z,19.00
2018-12-15T22:23:25.123Z,19.80
2018-12-15T22:25:53.396Z,20.43
2018-12-15T22:28:21.696Z,19.10
2018-12-15T22:30:49.980Z,19.10
2018-12-15T22:33:18.288Z,21.40
2018-12-15T22:35:46.599Z,15.28
2018-12-15T22:38:17.025Z,21.07
2018-12-15T22:40:45.289Z,21.27
2018-12-15T22:43:13.612Z,20.95
2018-12-15T22:45:41.922Z,20.75
2018-12-15T22:48:10.199Z,21.12
2018-12-15T22:50:38.506Z,20.60
2018-12-15T22:53:06.780Z,21.75
2018-12-15T22:55:35.105Z,21.48
2018-12-15T22:58:03.394Z,22.13
2018-12-15T23:00:34.865Z,23.25
2018-12-15T23:03:03.112Z,23.95
2018-12-15T23:05:31.410Z,22.82
2018-12-15T23:07:59.721Z,21.55
2018-12-15T23:10:28.560Z,22.73
2018-12-15T23:12:56.849Z,20.65
2018-12-15T23:15:25.152Z,24.05
2018-12-15T23:17:53.432Z,21.57
2018-12-15T23:20:21.737Z,22.20
2018-12-15T23:22:50.033Z,23.15
2018-12-15T23:25:18.349Z,22.17
2018-12-15T23:27:46.643Z,23.27
2018-12-15T23:30:14.916Z,18.80
2018-12-15T23:32:43.241Z,22.62
2018-12-15T23:35:11.529Z,18.00
2018-12-15T23:37:39.817Z,21.75
2018-12-15T23:40:08.840Z,21.52
2018-12-15T23:42:37.136Z,22.35
2018-12-15T23:45:06.710Z,21.95
2018-12-15T23:47:35.016Z,22.13
2018-12-15T23:50:04.339Z,23.25
2018-12-15T23:52:32.619Z,21.48
2018-12-15T23:55:00.977Z,20.77
2018-12-15T23:57:29.283Z,21.62
2018-12-15T23:59:57.551Z,23.10
